Time;durP1;ratioP1;P1;durP2;ratioP2;P2;SDS_P1;SDS_P2;PMS_P1;PMS_P2;Temp;Humidity;BMP_temperature;BMP_pressure;BME280_temperature;BME280_humidity;BME280_pressure;Samples;Min_cycle;Max_cycle;Signal;HPM_P1;HPM_P2
2023/08/12 00:01:21;;;;;;;11.82;4.03;;;;;;;20.15;96.76;101008.25;4995493;28;20157;-88
2023/08/12 00:03:48;;;;;;;11.30;3.63;;;;;;;20.14;96.52;101008.28;5013897;28;20042;-87
2023/08/12 00:06:15;;;;;;;12.10;4.63;;;;;;;20.10;97.15;101006.69;5010898;28;20301;-88
2023/08/12 00:08:42;;;;;;;6.45;4.10;;;;;;;20.11;96.90;101000.44;5024494;28;20149;-87
2023/08/12 00:11:09;;;;;;;12.25;4.15;;;;;;;20.12;96.51;101003.03;5008279;28;20037;-88
2023/08/12 00:13:39;;;;;;;10.02;3.90;;;;;;;20.13;96.64;100998.59;4995033;28;20053;-89
2023/08/12 00:16:06;;;;;;;8.60;4.25;;;;;;;20.13;96.31;100998.59;5010838;28;20065;-88
2023/08/12 00:18:36;;;;;;;9.70;4.40;;;;;;;20.12;96.21;100997.72;5013680;28;20041;-89
2023/08/12 00:21:10;;;;;;;9.35;4.13;;;;;;;20.13;96.16;100998.59;5012089;28;20123;-88
2023/08/12 00:23:42;;;;;;;8.15;3.28;;;;;;;20.10;96.00;100996.06;5008265;28;20053;-88
2023/08/12 00:26:09;;;;;;;6.10;3.47;;;;;;;20.08;96.12;100996.13;5009846;28;20042;-86
2023/08/12 00:28:37;;;;;;;4.30;2.95;;;;;;;20.08;96.13;101001.44;5009883;28;20121;-87
2023/08/12 00:31:04;;;;;;;6.55;3.53;;;;;;;20.06;95.95;100997.97;5003951;28;20046;-88
2023/08/12 00:33:31;;;;;;;5.95;3.20;;;;;;;20.04;96.11;100997.19;5012276;28;20449;-88
2023/08/12 00:35:58;;;;;;;5.53;3.08;;;;;;;20.03;95.83;100995.47;5012263;28;20054;-88
2023/08/12 00:38:25;;;;;;;9.90;3.30;;;;;;;20.05;95.81;100992.72;5018443;28;20053;-89
2023/08/12 00:40:51;;;;;;;6.35;3.22;;;;;;;20.02;95.36;100996.38;5010910;28;20085;-88
2023/08/12 00:43:18;;;;;;;3.60;3.17;;;;;;;20.00;95.61;100984.97;5030899;28;20064;-88
2023/08/12 00:45:46;;;;;;;5.75;3.00;;;;;;;19.99;95.71;100983.25;5025662;28;20054;-87
2023/08/12 00:48:13;;;;;;;8.30;3.25;;;;;;;19.95;95.53;100987.81;4985233;28;20050;-88
2023/08/12 00:50:40;;;;;;;3.33;3.03;;;;;;;19.95;95.64;100989.63;5011798;28;20045;-88
2023/08/12 00:53:10;;;;;;;7.50;3.88;;;;;;;19.95;95.68;100984.31;5018906;28;20130;-88
2023/08/12 00:55:38;;;;;;;4.25;2.70;;;;;;;19.92;95.67;100982.66;5022343;28;20029;-88
2023/08/12 00:58:05;;;;;;;5.50;3.35;;;;;;;19.91;95.66;100972.09;5029782;28;20106;-87
2023/08/12 01:00:33;;;;;;;8.35;3.63;;;;;;;19.90;95.74;100970.34;5014945;28;20513;-88
2023/08/12 01:03:02;;;;;;;8.68;3.25;;;;;;;19.90;95.75;100959.72;5010396;28;20109;-87
2023/08/12 01:05:31;;;;;;;8.45;3.50;;;;;;;19.90;96.02;100959.72;5023827;28;20067;-88
2023/08/12 01:07:57;;;;;;;6.13;3.55;;;;;;;19.93;95.77;100962.25;5007581;28;20034;-88
2023/08/12 01:10:32;;;;;;;3.85;3.50;;;;;;;19.95;96.00;100955.94;4983703;28;20050;-88
2023/08/12 01:13:41;;;;;;;7.63;3.67;;;;;;;20.00;95.84;100953.09;5010841;28;20100;-89
2023/08/12 01:16:10;;;;;;;6.25;3.70;;;;;;;20.01;95.42;100949.47;5009910;28;20046;-89
2023/08/12 01:18:39;;;;;;;3.40;3.00;;;;;;;20.05;95.17;100939.59;5000586;28;20062;-87
2023/08/12 01:21:13;;;;;;;6.00;3.58;;;;;;;20.06;94.67;100939.50;4995621;28;20050;-89
2023/08/12 01:23:40;;;;;;;5.53;3.22;;;;;;;20.07;94.77;100935.06;5022699;28;20401;-87
2023/08/12 01:26:10;;;;;;;3.65;3.25;;;;;;;20.08;94.63;100939.47;5021412;28;20046;-87
2023/08/12 01:28:37;;;;;;;3.63;3.33;;;;;;;20.08;94.70;100935.00;4998037;28;20045;-88
2023/08/12 01:31:17;;;;;;;13.02;4.35;;;;;;;20.06;94.69;100931.53;5007330;28;20117;-88
2023/08/12 01:33:59;;;;;;;3.40;3.10;;;;;;;20.10;94.64;100937.59;5007355;28;20517;-89
2023/08/12 01:36:27;;;;;;;10.95;3.25;;;;;;;20.09;94.31;100928.75;5001169;28;20054;-88
2023/08/12 01:38:57;;;;;;;10.18;3.50;;;;;;;20.08;94.46;100921.72;5004013;28;20092;-88
2023/08/12 01:41:25;;;;;;;7.00;3.22;;;;;;;20.09;94.15;100923.44;5003290;28;20068;-89
2023/08/12 01:43:51;;;;;;;7.68;3.00;;;;;;;20.08;94.34;100924.38;5002404;28;20080;-89
2023/08/12 01:46:18;;;;;;;4.32;2.97;;;;;;;20.09;93.67;100923.44;5013474;28;20046;-88
2023/08/12 01:48:45;;;;;;;7.13;4.05;;;;;;;20.12;93.74;100911.81;5012438;28;20054;-88
2023/08/12 01:51:12;;;;;;;3.85;3.15;;;;;;;20.13;93.45;100910.91;5009669;28;20113;-88
2023/08/12 01:53:39;;;;;;;10.20;3.35;;;;;;;20.17;92.95;100908.00;5006382;28;20045;-89
2023/08/12 01:56:05;;;;;;;5.40;3.17;;;;;;;20.19;92.61;100913.25;5006558;28;20124;-88
2023/08/12 01:58:32;;;;;;;7.47;3.15;;;;;;;20.21;92.56;100908.75;5007802;28;20045;-88
2023/08/12 02:00:59;;;;;;;7.38;3.42;;;;;;;20.24;91.91;100913.91;4973366;28;20129;-86
2023/08/12 02:03:25;;;;;;;5.30;3.15;;;;;;;20.26;91.54;100911.19;5007702;28;20054;-87
2023/08/12 02:05:52;;;;;;;9.50;3.70;;;;;;;20.26;91.37;100911.19;5004098;28;20049;-87
2023/08/12 02:08:19;;;;;;;4.63;3.13;;;;;;;20.27;91.38;100902.28;5011206;28;20038;-87
2023/08/12 02:10:46;;;;;;;7.05;3.15;;;;;;;20.27;91.12;100911.13;5024506;28;20418;-88
2023/08/12 02:13:12;;;;;;;5.22;3.30;;;;;;;20.28;91.18;100906.66;5005507;28;20047;-89
2023/08/12 02:15:42;;;;;;;6.20;2.97;;;;;;;20.29;90.95;100908.41;5024502;28;20046;-89
2023/08/12 02:18:09;;;;;;;7.18;2.45;;;;;;;20.30;90.84;100910.13;5010910;28;20433;-88
2023/08/12 02:20:35;;;;;;;4.72;2.95;;;;;;;20.32;90.84;100925.09;5007633;28;20065;-88
2023/08/12 02:23:02;;;;;;;3.90;3.10;;;;;;;20.31;90.74;100936.63;5002731;28;20044;-87
2023/08/12 02:25:28;;;;;;;4.45;3.08;;;;;;;20.29;90.63;100937.63;5008891;28;20041;-89
2023/08/12 02:27:55;;;;;;;7.18;3.15;;;;;;;20.25;90.81;100936.06;5007406;28;20042;-89
2023/08/12 02:30:22;;;;;;;5.60;2.90;;;;;;;20.25;91.16;100936.91;5006948;28;20049;-87
2023/08/12 02:32:49;;;;;;;9.68;2.75;;;;;;;20.26;90.67;100930.66;5003772;28;20113;-88
2023/08/12 02:35:18;;;;;;;2.92;2.63;;;;;;;20.27;90.50;100926.19;5029700;28;20042;-88
2023/08/12 02:37:45;;;;;;;5.97;3.08;;;;;;;20.27;90.60;100931.50;5024128;28;20046;-89
2023/08/12 02:40:12;;;;;;;4.00;2.90;;;;;;;20.27;90.50;100927.09;5012555;28;20115;-88
2023/08/12 02:42:42;;;;;;;5.32;2.88;;;;;;;20.29;90.69;100921.69;5009714;28;20061;-87
2023/08/12 02:45:12;;;;;;;4.15;2.78;;;;;;;20.28;90.55;100923.47;4978886;28;20056;-87
2023/08/12 02:47:38;;;;;;;10.25;2.95;;;;;;;20.27;90.61;100920.88;5024216;28;20055;-87
2023/08/12 02:50:07;;;;;;;3.50;3.15;;;;;;;20.20;90.93;100912.31;5010202;28;20054;-87
2023/08/12 02:52:34;;;;;;;4.63;2.53;;;;;;;20.22;90.59;100915.78;5031923;28;20042;-87
2023/08/12 02:55:00;;;;;;;3.72;3.05;;;;;;;20.25;90.62;100925.44;5013894;28;20111;-86
2023/08/12 02:57:27;;;;;;;2.15;1.98;;;;;;;20.29;90.18;100927.84;5008616;28;20076;-90
2023/08/12 02:59:54;;;;;;;3.28;2.85;;;;;;;20.26;90.71;100930.66;5008676;28;20049;-89
2023/08/12 03:02:20;;;;;;;2.70;2.42;;;;;;;20.25;90.47;100925.44;5027137;28;20042;-88
2023/08/12 03:04:47;;;;;;;3.65;2.78;;;;;;;20.24;90.74;100929.00;5000272;28;20034;-89
2023/08/12 03:07:14;;;;;;;2.13;1.95;;;;;;;20.23;90.77;100925.47;5017338;28;20073;-85
2023/08/12 03:09:41;;;;;;;3.88;2.97;;;;;;;20.20;91.61;100925.63;5021019;28;20050;-89
2023/08/12 03:12:08;;;;;;;7.25;2.67;;;;;;;20.17;91.43;100923.97;5015403;28;20140;-87
2023/08/12 03:14:35;;;;;;;3.60;3.30;;;;;;;20.21;91.62;100926.47;5012400;28;20124;-87
2023/08/12 03:17:01;;;;;;;3.95;3.00;;;;;;;20.19;91.78;100923.88;5017841;28;20083;-87
2023/08/12 03:19:30;;;;;;;4.38;3.30;;;;;;;20.18;92.30;100922.19;5019179;28;20455;-88
2023/08/12 03:21:57;;;;;;;5.28;3.05;;;;;;;20.16;92.55;100922.22;5017002;28;20046;-86
2023/08/12 03:24:24;;;;;;;5.82;4.03;;;;;;;20.10;92.82;100927.84;4998349;28;20042;-88
2023/08/12 03:26:51;;;;;;;10.32;4.18;;;;;;;20.04;94.29;100933.41;5005029;28;20058;-87
2023/08/12 03:29:18;;;;;;;9.27;3.88;;;;;;;19.98;94.15;100934.53;5007329;28;20053;-87
2023/08/12 03:31:44;;;;;;;10.52;4.07;;;;;;;19.96;94.83;100941.72;5033111;28;20513;-87
2023/08/12 03:34:11;;;;;;;5.63;3.75;;;;;;;19.95;94.71;100947.97;5019852;28;20109;-87
2023/08/12 03:36:38;;;;;;;4.03;3.63;;;;;;;19.89;95.45;100948.22;5021295;28;20146;-88
2023/08/12 03:39:05;;;;;;;11.02;4.60;;;;;;;19.88;96.08;100940.31;5026321;28;20093;-87
2023/08/12 03:41:31;;;;;;;5.20;4.22;;;;;;;19.81;96.56;100937.94;5017210;28;20034;-87
2023/08/12 03:43:58;;;;;;;7.30;5.65;;;;;;;19.78;98.03;100942.50;5001842;28;20135;-87
2023/08/12 03:46:25;;;;;;;7.00;4.88;;;;;;;19.71;98.40;100939.25;5036133;28;20038;-88
2023/08/12 03:48:51;;;;;;;8.38;5.88;;;;;;;19.68;100.00;100939.34;5015900;28;20056;-88
2023/08/12 03:51:18;;;;;;;7.75;5.38;;;;;;;19.62;100.00;100936.94;5010978;28;20052;-88
2023/08/12 03:53:44;;;;;;;8.82;6.38;;;;;;;19.60;100.00;100933.53;5001045;28;20129;-89
2023/08/12 03:56:14;;;;;;;9.32;6.43;;;;;;;19.59;100.00;100923.81;5036895;28;20035;-88
2023/08/12 03:58:41;;;;;;;9.15;5.90;;;;;;;19.56;100.00;100921.31;5028917;28;20056;-86
2023/08/12 04:01:08;;;;;;;8.73;7.43;;;;;;;19.54;100.00;100920.50;5014011;28;20041;-86
2023/08/12 04:03:35;;;;;;;6.97;6.28;;;;;;;19.47;100.00;100922.53;4999857;28;20053;-87
2023/08/12 04:06:03;;;;;;;7.95;6.82;;;;;;;19.45;100.00;100950.94;5032164;28;20049;-89
2023/08/12 04:08:32;;;;;;;8.93;6.40;;;;;;;19.43;100.00;100961.63;5014767;28;20109;-88
2023/08/12 04:10:59;;;;;;;9.55;6.80;;;;;;;19.44;100.00;100947.44;5016539;28;20045;-87
2023/08/12 04:13:27;;;;;;;11.48;7.18;;;;;;;19.41;100.00;100944.91;5011748;28;20046;-88
2023/08/12 04:15:57;;;;;;;10.82;7.30;;;;;;;19.38;100.00;100945.03;5010723;28;20722;-87
2023/08/12 04:18:23;;;;;;;15.90;8.68;;;;;;;19.34;100.00;100951.38;5012776;28;20155;-87
2023/08/12 04:20:51;;;;;;;8.20;7.40;;;;;;;19.33;100.00;100958.50;5008566;28;20130;-88
2023/08/12 04:23:18;;;;;;;10.25;7.43;;;;;;;19.32;100.00;100955.88;5000725;28;20082;-86
2023/08/12 04:25:47;;;;;;;9.98;8.07;;;;;;;19.32;100.00;100972.69;5005663;28;20068;-88
2023/08/12 04:28:15;;;;;;;10.02;8.18;;;;;;;19.29;100.00;100970.13;5004884;28;20109;-88
2023/08/12 04:30:44;;;;;;;11.93;8.02;;;;;;;19.28;100.00;100968.44;5013793;28;20105;-88
2023/08/12 04:33:12;;;;;;;14.65;7.82;;;;;;;19.26;100.00;100957.00;5046626;28;20026;-88
2023/08/12 04:35:40;;;;;;;10.38;9.10;;;;;;;19.21;100.00;100953.66;5032080;28;20142;-89
2023/08/12 04:38:08;;;;;;;9.25;7.32;;;;;;;19.16;100.00;100953.88;5010776;28;20482;-88
2023/08/12 04:40:35;;;;;;;13.05;9.73;;;;;;;19.14;100.00;100958.38;5009647;28;20049;-88
2023/08/12 04:43:02;;;;;;;9.52;7.93;;;;;;;19.09;100.00;100948.88;5009575;28;20046;-88
2023/08/12 04:45:29;;;;;;;10.07;8.57;;;;;;;19.03;100.00;100943.81;5011701;28;20045;-88
2023/08/12 04:47:58;;;;;;;9.23;8.05;;;;;;;18.98;100.00;100942.19;4995941;28;20041;-88
2023/08/12 04:50:27;;;;;;;11.27;8.95;;;;;;;18.98;100.00;100942.19;4989669;28;20490;-89
2023/08/12 04:52:54;;;;;;;10.48;8.18;;;;;;;19.00;100.00;100935.03;5013760;28;20072;-88
2023/08/12 04:55:27;;;;;;;10.65;8.75;;;;;;;19.06;100.00;100938.34;5018382;28;20034;-88
2023/08/12 04:57:53;;;;;;;8.05;7.28;;;;;;;19.07;100.00;100946.25;5004114;28;20065;-89
2023/08/12 05:00:21;;;;;;;11.52;9.10;;;;;;;19.11;100.00;100941.69;5003926;28;20046;-87
2023/08/12 05:02:47;;;;;;;13.88;9.98;;;;;;;19.13;100.00;100945.16;4987266;28;20050;-88
2023/08/12 05:05:14;;;;;;;10.65;8.10;;;;;;;19.11;100.00;100945.22;5025752;28;20093;-88
2023/08/12 05:07:41;;;;;;;11.65;9.48;;;;;;;19.12;100.00;100946.94;4992522;28;20050;-88
2023/08/12 05:10:11;;;;;;;10.48;9.07;;;;;;;19.20;100.00;100954.59;5012802;28;20046;-86
2023/08/12 05:12:38;;;;;;;10.95;8.75;;;;;;;19.22;100.00;100958.06;5007010;28;20088;-88
2023/08/12 05:15:15;;;;;;;9.93;8.05;;;;;;;19.26;100.00;100953.50;5002414;28;20050;-89
2023/08/12 05:17:44;;;;;;;12.13;9.95;;;;;;;19.28;100.00;100956.94;5026247;28;20040;-89
2023/08/12 05:20:11;;;;;;;17.00;11.68;;;;;;;19.29;100.00;100950.72;5010300;28;20038;-89
2023/08/12 05:22:38;;;;;;;17.02;8.80;;;;;;;19.34;100.00;100946.94;5013594;28;20049;-87
2023/08/12 05:25:05;;;;;;;12.30;8.60;;;;;;;19.36;100.00;100948.66;5000309;28;20046;-86
2023/08/12 05:27:32;;;;;;;10.82;8.43;;;;;;;19.46;100.00;100942.94;5004070;28;20061;-88
2023/08/12 05:29:59;;;;;;;10.35;9.27;;;;;;;19.59;100.00;100943.25;5015660;28;20144;-87
2023/08/12 05:32:25;;;;;;;10.43;9.25;;;;;;;19.69;100.00;100942.91;5011711;28;20050;-86
2023/08/12 05:34:57;;;;;;;14.15;9.82;;;;;;;19.78;100.00;100946.00;5031174;28;20046;-87
2023/08/12 05:37:23;;;;;;;12.48;10.25;;;;;;;19.80;100.00;100949.47;5026494;28;20414;-88
2023/08/12 05:39:51;;;;;;;13.98;8.65;;;;;;;19.85;100.00;100951.94;5026342;28;20054;-86
2023/08/12 05:42:18;;;;;;;12.27;8.85;;;;;;;19.86;100.00;100952.81;5016045;28;20051;-87
2023/08/12 05:44:44;;;;;;;10.57;9.43;;;;;;;19.87;100.00;100954.53;5008161;28;20046;-87
2023/08/12 05:47:11;;;;;;;12.32;9.32;;;;;;;19.87;100.00;100963.38;4992755;28;20076;-87
2023/08/12 05:49:38;;;;;;;15.07;10.20;;;;;;;19.86;100.00;100956.34;5024202;28;20084;-87
2023/08/12 05:52:07;;;;;;;11.20;7.72;;;;;;;19.84;100.00;100952.88;5021092;28;20037;-88
2023/08/12 05:54:34;;;;;;;12.32;9.73;;;;;;;19.86;100.00;100955.47;5006700;28;20042;-88
2023/08/12 05:57:01;;;;;;;9.10;7.20;;;;;;;19.80;100.00;100945.94;5007850;28;20081;-88
2023/08/12 05:59:27;;;;;;;13.77;12.00;;;;;;;19.83;100.00;100937.88;5008147;28;20048;-88
2023/08/12 06:01:55;;;;;;;10.75;9.02;;;;;;;19.85;100.00;100938.66;5005111;28;20050;-86
2023/08/12 06:04:22;;;;;;;11.75;8.88;;;;;;;19.90;100.00;100933.16;5006854;28;20041;-87
2023/08/12 06:06:50;;;;;;;10.63;8.43;;;;;;;19.96;100.00;100920.47;5002393;28;20126;-87
2023/08/12 06:09:17;;;;;;;10.82;9.13;;;;;;;19.98;100.00;100923.91;4998383;28;20073;-87
2023/08/12 06:11:43;;;;;;;12.45;8.93;;;;;;;19.99;100.00;100928.28;5005066;28;20050;-88
2023/08/12 06:14:10;;;;;;;14.55;10.02;;;;;;;20.02;100.00;100918.47;5004307;28;20050;-86
2023/08/12 06:16:37;;;;;;;8.75;6.82;;;;;;;20.11;100.00;100915.41;5004466;28;20050;-88
2023/08/12 06:19:04;;;;;;;12.50;9.68;;;;;;;20.18;100.00;100914.22;5005533;28;20125;-86
2023/08/12 06:21:30;;;;;;;12.70;9.52;;;;;;;20.27;100.00;100902.28;5008070;28;20044;-88
2023/08/12 06:23:57;;;;;;;9.82;8.38;;;;;;;20.35;100.00;100896.59;5008398;28;20054;-88
2023/08/12 06:26:24;;;;;;;13.77;9.75;;;;;;;20.43;100.00;100899.78;5009020;28;20065;-88
2023/08/12 06:28:51;;;;;;;23.27;11.02;;;;;;;20.54;100.00;100899.28;5015007;28;20041;-88
2023/08/12 06:31:17;;;;;;;10.43;8.45;;;;;;;20.67;100.00;100901.28;5027559;28;20079;-89
2023/08/12 06:33:46;;;;;;;13.32;7.95;;;;;;;20.73;100.00;100905.50;5028705;28;20551;-86
2023/08/12 06:36:13;;;;;;;12.93;9.07;;;;;;;20.77;100.00;100901.75;5026649;28;20073;-86
2023/08/12 06:38:40;;;;;;;9.10;8.18;;;;;;;20.84;100.00;100891.66;4998523;28;20057;-88
2023/08/12 06:41:06;;;;;;;11.40;8.38;;;;;;;20.90;100.00;100893.16;5011935;28;20045;-86
2023/08/12 06:43:33;;;;;;;13.57;9.32;;;;;;;21.02;100.00;100897.91;5029928;28;20061;-89
2023/08/12 06:46:02;;;;;;;14.73;9.88;;;;;;;21.18;100.00;100891.81;5013678;28;20490;-87
2023/08/12 06:48:29;;;;;;;8.63;7.43;;;;;;;21.38;100.00;100888.16;5013508;28;20116;-88
2023/08/12 06:50:57;;;;;;;16.02;10.07;;;;;;;21.62;100.00;100886.09;5001916;28;20040;-89
2023/08/12 06:53:25;;;;;;;15.10;9.60;;;;;;;21.85;100.00;100890.22;5014426;28;20041;-87
2023/08/12 06:55:52;;;;;;;16.10;9.13;;;;;;;21.90;100.00;100887.28;4980008;28;20047;-89
2023/08/12 06:58:18;;;;;;;11.27;7.80;;;;;;;22.04;100.00;100886.56;5025284;28;20077;-88
2023/08/12 07:00:45;;;;;;;8.68;6.55;;;;;;;22.10;100.00;100892.44;5007602;28;20996;-87
2023/08/12 07:03:12;;;;;;;12.10;7.35;;;;;;;22.12;100.00;100887.88;5018041;28;20630;-88
2023/08/12 07:05:38;;;;;;;9.38;7.53;;;;;;;22.15;100.00;100892.19;5021019;28;20056;-87
2023/08/12 07:08:05;;;;;;;8.20;6.63;;;;;;;22.25;100.00;100884.53;5010206;28;20195;-86
2023/08/12 07:10:32;;;;;;;11.80;7.80;;;;;;;22.42;100.00;100883.66;4997950;28;20054;-87
2023/08/12 07:12:58;;;;;;;9.00;6.60;;;;;;;22.65;100.00;100885.03;5005629;28;20557;-88
2023/08/12 07:15:25;;;;;;;6.10;5.50;;;;;;;23.03;98.28;100887.34;4993140;28;20058;-87
2023/08/12 07:17:52;;;;;;;9.27;6.75;;;;;;;23.56;96.30;100881.66;5008667;28;20073;-89
2023/08/12 07:20:21;;;;;;;8.45;5.90;;;;;;;23.70;94.91;100870.97;5006690;28;20042;-88
2023/08/12 07:22:48;;;;;;;9.90;7.07;;;;;;;23.71;93.63;100874.50;4990183;28;20141;-87
2023/08/12 07:25:15;;;;;;;9.60;6.50;;;;;;;24.09;93.25;100850.78;5025339;28;20048;-87
2023/08/12 07:27:41;;;;;;;8.15;6.75;;;;;;;24.40;90.63;100853.31;4992390;28;20038;-88
2023/08/12 07:30:09;;;;;;;8.63;6.43;;;;;;;24.79;89.38;100854.41;5007521;28;20069;-86
2023/08/12 07:32:39;;;;;;;10.18;6.28;;;;;;;24.99;87.17;100860.25;4993445;28;20053;-86
2023/08/12 07:35:06;;;;;;;9.18;6.38;;;;;;;24.99;87.08;100868.28;5020523;28;20378;-85
2023/08/12 07:37:33;;;;;;;12.27;5.35;;;;;;;24.69;86.96;100866.66;4997103;28;20126;-87
2023/08/12 07:40:00;;;;;;;7.72;5.88;;;;;;;24.40;88.26;100880.94;5006226;28;20080;-86
2023/08/12 07:42:27;;;;;;;9.10;5.57;;;;;;;24.12;89.43;100868.47;5004562;28;20050;-87
2023/08/12 07:44:54;;;;;;;6.72;5.60;;;;;;;23.80;90.99;100868.59;5024741;28;20052;-87
2023/08/12 07:47:20;;;;;;;10.90;7.47;;;;;;;23.48;92.06;100867.88;5006135;28;20037;-87
2023/08/12 07:49:47;;;;;;;6.78;5.57;;;;;;;23.37;92.81;100860.50;5010292;28;20493;-85
2023/08/12 07:52:14;;;;;;;7.65;5.50;;;;;;;23.18;93.92;100850.91;5004341;28;20600;-85
2023/08/12 07:54:40;;;;;;;9.50;6.80;;;;;;;23.07;94.37;100831.97;4993987;28;20046;-85
2023/08/12 07:57:07;;;;;;;8.27;6.28;;;;;;;22.90;95.01;100849.81;5004462;28;20057;-86
2023/08/12 07:59:34;;;;;;;8.10;6.63;;;;;;;22.74;95.91;100865.00;5008463;28;20066;-86
2023/08/12 08:02:00;;;;;;;6.07;5.22;;;;;;;22.59;96.54;100866.72;4999528;28;20046;-87
2023/08/12 08:04:27;;;;;;;10.15;6.28;;;;;;;22.46;97.57;100862.06;5014450;28;20053;-86
2023/08/12 08:06:55;;;;;;;9.63;7.20;;;;;;;22.42;97.48;100859.66;5006098;28;20057;-85
2023/08/12 08:09:22;;;;;;;11.32;6.32;;;;;;;22.37;97.53;100867.91;4988337;28;20319;-86
2023/08/12 08:11:48;;;;;;;13.20;6.55;;;;;;;22.30;98.13;100858.50;5008796;28;20045;-87
2023/08/12 08:14:15;;;;;;;11.32;7.30;;;;;;;22.24;98.80;100862.38;4992621;28;20064;-86
2023/08/12 08:16:42;;;;;;;8.23;5.97;;;;;;;22.24;98.76;100862.38;5023056;28;20152;-87
2023/08/12 08:19:09;;;;;;;6.65;5.85;;;;;;;22.14;99.64;100866.47;4990285;28;20046;-86
2023/08/12 08:21:37;;;;;;;11.95;6.70;;;;;;;22.11;99.90;100864.84;4988650;28;20041;-87
2023/08/12 08:24:04;;;;;;;7.18;5.93;;;;;;;22.12;100.00;100866.56;5025148;28;20074;-87
2023/08/12 08:26:30;;;;;;;7.00;6.25;;;;;;;22.24;99.54;100862.38;5021287;28;20038;-86
2023/08/12 08:28:58;;;;;;;8.05;6.45;;;;;;;22.20;100.00;100859.94;5010840;28;20041;-87
2023/08/12 08:31:24;;;;;;;11.00;7.40;;;;;;;22.30;99.54;100864.66;5036937;28;20510;-88
2023/08/12 08:33:51;;;;;;;7.65;6.05;;;;;;;22.36;99.07;100863.53;5015035;28;20456;-88
2023/08/12 08:36:19;;;;;;;7.88;5.50;;;;;;;22.48;98.32;100861.13;5028462;28;20636;-87
2023/08/12 08:38:45;;;;;;;10.73;6.00;;;;;;;22.43;98.62;100846.22;5029176;28;20054;-86
2023/08/12 08:41:12;;;;;;;6.18;5.22;;;;;;;22.69;98.12;100848.38;5009817;28;20041;-86
2023/08/12 08:43:43;;;;;;;9.20;5.70;;;;;;;22.89;96.51;100856.13;4999247;28;20053;-85
2023/08/12 08:46:12;;;;;;;9.45;5.85;;;;;;;22.98;95.21;100840.50;5013011;28;20054;-87
2023/08/12 08:48:40;;;;;;;7.72;6.22;;;;;;;22.86;95.28;100850.94;5013929;28;20057;-87
2023/08/12 08:51:08;;;;;;;7.07;5.28;;;;;;;22.84;95.86;100843.97;5017192;28;20267;-88
2023/08/12 08:53:39;;;;;;;7.65;5.97;;;;;;;22.85;95.78;100851.88;5008773;28;20050;-85
2023/08/12 08:56:07;;;;;;;5.78;5.18;;;;;;;22.88;95.60;100845.50;4994886;28;20406;-87
2023/08/12 08:58:35;;;;;;;12.80;6.10;;;;;;;22.84;95.27;100846.63;4992552;28;20062;-87
2023/08/12 09:01:03;;;;;;;8.27;5.63;;;;;;;22.93;95.57;100851.44;5025879;28;20577;-89
2023/08/12 09:03:30;;;;;;;8.95;5.60;;;;;;;23.04;94.92;100856.19;4996627;28;20513;-87
2023/08/12 09:05:59;;;;;;;6.88;5.63;;;;;;;23.00;94.04;100858.16;5011677;28;20046;-88
2023/08/12 09:08:28;;;;;;;6.10;5.15;;;;;;;22.86;94.93;100861.63;5010138;28;20112;-87
2023/08/12 09:10:56;;;;;;;14.70;7.25;;;;;;;22.62;95.44;100864.75;5013665;28;20050;-86
2023/08/12 09:13:23;;;;;;;11.73;7.38;;;;;;;22.39;96.09;100857.16;5023891;28;20042;-87
2023/08/12 09:15:49;;;;;;;6.85;6.00;;;;;;;22.24;96.51;100861.47;5006285;28;20108;-87
2023/08/12 09:18:17;;;;;;;8.75;5.47;;;;;;;22.14;97.01;100850.47;5001909;28;20042;-86
2023/08/12 09:20:44;;;;;;;7.65;5.47;;;;;;;22.08;97.00;100846.31;5007703;28;20042;-86
2023/08/12 09:23:11;;;;;;;7.05;5.75;;;;;;;22.21;96.48;100837.66;5009187;28;20045;-86
2023/08/12 09:25:45;;;;;;;7.00;4.90;;;;;;;22.48;95.35;100837.13;4991484;28;20146;-86
2023/08/12 09:28:13;;;;;;;7.45;5.20;;;;;;;22.79;93.57;100839.75;5026828;28;20046;-85
2023/08/12 09:30:40;;;;;;;5.80;5.15;;;;;;;22.92;93.09;100841.75;5004683;28;20049;-85
2023/08/12 09:33:09;;;;;;;8.18;4.75;;;;;;;22.88;92.47;100837.50;5011065;28;20050;-86
2023/08/12 09:35:44;;;;;;;6.63;4.75;;;;;;;22.89;92.53;100836.56;5011561;28;20058;-86
2023/08/12 09:38:14;;;;;;;6.18;4.70;;;;;;;22.94;91.96;100827.34;5010277;28;20071;-85
2023/08/12 09:40:41;;;;;;;4.57;4.25;;;;;;;23.11;91.17;100820.13;5025874;28;20068;-86
2023/08/12 09:43:11;;;;;;;5.95;4.07;;;;;;;23.35;90.46;100806.31;5009121;28;20080;-86
2023/08/12 09:45:38;;;;;;;5.63;4.88;;;;;;;23.63;88.68;100797.47;5025066;28;20222;-86
2023/08/12 09:48:07;;;;;;;8.13;5.78;;;;;;;23.63;88.17;100794.78;5027096;28;20136;-86
2023/08/12 09:50:37;;;;;;;5.95;5.00;;;;;;;23.63;88.33;100797.47;5014597;28;20346;-86
2023/08/12 09:53:05;;;;;;;11.60;5.47;;;;;;;23.54;88.15;100793.53;5019209;28;20054;-87
2023/08/12 09:55:36;;;;;;;4.22;3.83;;;;;;;23.59;88.25;100793.28;5011292;28;20057;-87
2023/08/12 09:58:07;;;;;;;5.70;5.07;;;;;;;23.64;87.24;100795.69;5007910;28;20053;-88
2023/08/12 10:00:34;;;;;;;11.25;5.53;;;;;;;23.65;86.46;100792.91;5011096;28;20052;-86
2023/08/12 10:03:02;;;;;;;5.65;4.88;;;;;;;23.55;87.70;100789.91;5007688;28;20045;-87
2023/08/12 10:05:33;;;;;;;5.15;4.40;;;;;;;23.52;88.38;100791.91;5016005;28;20042;-88
2023/08/12 10:08:03;;;;;;;6.13;4.80;;;;;;;23.52;87.76;100797.25;5003777;28;20500;-88
2023/08/12 10:10:33;;;;;;;4.70;4.30;;;;;;;23.61;88.17;100800.25;5005516;28;20034;-87
2023/08/12 10:13:00;;;;;;;8.45;5.20;;;;;;;23.68;87.71;100808.72;5008897;28;20513;-86
2023/08/12 10:15:28;;;;;;;5.85;4.78;;;;;;;23.74;87.51;100807.47;4993007;28;20486;-87
2023/08/12 10:17:56;;;;;;;3.78;3.47;;;;;;;23.61;88.13;100810.94;5006301;28;20600;-87
2023/08/12 10:20:27;;;;;;;10.07;4.95;;;;;;;23.50;89.30;100813.38;4993121;28;20050;-87
2023/08/12 10:22:57;;;;;;;7.30;5.43;;;;;;;23.53;89.82;100813.22;5010324;28;20049;-86
2023/08/12 10:25:26;;;;;;;5.05;4.57;;;;;;;23.71;89.24;100807.69;5034770;28;20065;-86
2023/08/12 10:27:53;;;;;;;6.93;5.75;;;;;;;24.00;87.97;100818.41;5017420;28;20078;-87
2023/08/12 10:30:22;;;;;;;7.97;4.60;;;;;;;24.05;88.25;100819.84;5012170;28;20068;-87
2023/08/12 10:32:50;;;;;;;6.47;4.75;;;;;;;24.15;87.88;100819.25;5026452;28;20517;-85
2023/08/12 10:35:17;;;;;;;4.78;4.38;;;;;;;24.20;87.26;100825.19;4987882;28;20245;-87
2023/08/12 10:37:51;;;;;;;4.78;4.25;;;;;;;24.17;86.95;100822.69;5007560;28;20048;-87
2023/08/12 10:40:23;;;;;;;6.45;4.43;;;;;;;24.02;87.09;100819.19;4997624;28;20081;-87
2023/08/12 10:42:51;;;;;;;6.43;5.13;;;;;;;23.86;87.33;100808.56;5004562;28;20046;-88
2023/08/12 10:45:19;;;;;;;5.18;4.45;;;;;;;24.18;86.77;100795.00;5024922;28;20638;-86
2023/08/12 10:48:11;;;;;;;4.95;4.50;;;;;;;24.53;84.91;100781.13;4995394;28;20054;-87
2023/08/12 10:50:38;;;;;;;4.20;3.72;;;;;;;25.29;82.32;100774.25;5009869;28;20089;-86
2023/08/12 10:53:33;;;;;;;4.85;4.35;;;;;;;25.62;78.92;100754.16;5011399;28;20092;-86
2023/08/12 10:56:06;;;;;;;5.13;4.25;;;;;;;25.79;78.45;100755.63;5007769;28;20072;-86
2023/08/12 10:58:43;;;;;;;3.90;3.60;;;;;;;25.85;78.38;100740.91;5018101;28;20034;-87
2023/08/12 11:01:19;;;;;;;5.90;4.30;;;;;;;26.01;77.74;100737.97;5003335;28;20121;-86
2023/08/12 11:03:51;;;;;;;3.97;3.67;;;;;;;26.54;74.97;100751.13;5006541;28;20050;-86
2023/08/12 11:06:20;;;;;;;4.53;3.35;;;;;;;26.97;73.91;100750.56;5004736;28;20088;-87
2023/08/12 11:08:48;;;;;;;3.80;3.50;;;;;;;27.24;71.86;100750.25;4999850;28;20054;-86
2023/08/12 11:11:25;;;;;;;3.35;3.10;;;;;;;28.92;66.49;100747.63;5003996;28;20045;-84
2023/08/12 11:13:58;;;;;;;3.85;2.63;;;;;;;30.52;59.04;100748.88;5028100;28;20049;-84
2023/08/12 11:16:40;;;;;;;4.25;3.03;;;;;;;30.82;55.94;100744.28;5010254;28;20041;-87
2023/08/12 11:19:07;;;;;;;3.80;3.42;;;;;;;31.60;55.87;100740.56;4990763;28;20137;-86
2023/08/12 11:21:39;;;;;;;2.72;2.55;;;;;;;32.79;52.39;100727.00;4980028;28;20073;-86
2023/08/12 11:24:12;;;;;;;2.70;2.50;;;;;;;33.34;50.16;100735.88;5006034;28;20046;-86